sensor_id;sensor_type;location;lat;lon;timestamp;P1;durP1;ratioP1;P2;durP2;ratioP2
56043;SDS011;41912;51.022;3.664;2022-11-18T00:01:08;5.68;;;1.88;;
56043;SDS011;41912;51.022;3.664;2022-11-18T00:03:34;4.00;;;2.20;;
56043;SDS011;41912;51.022;3.664;2022-11-18T00:06:00;3.78;;;1.63;;
56043;SDS011;41912;51.022;3.664;2022-11-18T00:08:25;7.93;;;2.83;;
56043;SDS011;41912;51.022;3.664;2022-11-18T00:10:51;5.60;;;2.10;;
56043;SDS011;41912;51.022;3.664;2022-11-18T00:13:18;5.75;;;2.28;;
56043;SDS011;41912;51.022;3.664;2022-11-18T00:16:06;5.18;;;1.95;;
56043;SDS011;41912;51.022;3.664;2022-11-18T00:18:34;4.97;;;1.77;;
56043;SDS011;41912;51.022;3.664;2022-11-18T00:21:03;6.25;;;2.17;;
56043;SDS011;41912;51.022;3.664;2022-11-18T00:23:33;4.22;;;2.13;;
56043;SDS011;41912;51.022;3.664;2022-11-18T00:26:03;6.20;;;1.88;;
56043;SDS011;41912;51.022;3.664;2022-11-18T00:28:30;6.63;;;2.13;;
56043;SDS011;41912;51.022;3.664;2022-11-18T00:31:14;7.15;;;2.30;;
56043;SDS011;41912;51.022;3.664;2022-11-18T00:33:40;7.90;;;2.50;;
56043;SDS011;41912;51.022;3.664;2022-11-18T00:36:07;6.00;;;2.55;;
56043;SDS011;41912;51.022;3.664;2022-11-18T00:38:34;5.82;;;2.13;;
56043;SDS011;41912;51.022;3.664;2022-11-18T00:43:31;7.03;;;2.28;;
56043;SDS011;41912;51.022;3.664;2022-11-18T00:45:58;5.45;;;2.00;;
56043;SDS011;41912;51.022;3.664;2022-11-18T00:48:23;3.63;;;1.98;;
56043;SDS011;41912;51.022;3.664;2022-11-18T00:50:50;7.40;;;2.20;;
56043;SDS011;41912;51.022;3.664;2022-11-18T00:53:17;9.90;;;2.25;;
56043;SDS011;41912;51.022;3.664;2022-11-18T00:55:44;5.03;;;2.30;;
56043;SDS011;41912;51.022;3.664;2022-11-18T00:58:10;6.00;;;1.98;;
56043;SDS011;41912;51.022;3.664;2022-11-18T01:00:43;6.38;;;2.08;;
56043;SDS011;41912;51.022;3.664;2022-11-18T01:03:10;5.00;;;2.05;;
56043;SDS011;41912;51.022;3.664;2022-11-18T01:05:36;7.75;;;2.50;;
56043;SDS011;41912;51.022;3.664;2022-11-18T01:08:03;7.00;;;2.05;;
56043;SDS011;41912;51.022;3.664;2022-11-18T01:10:33;6.15;;;2.50;;
56043;SDS011;41912;51.022;3.664;2022-11-18T01:12:59;6.60;;;2.20;;
56043;SDS011;41912;51.022;3.664;2022-11-18T01:15:44;9.95;;;2.30;;
56043;SDS011;41912;51.022;3.664;2022-11-18T01:18:24;7.82;;;2.33;;
56043;SDS011;41912;51.022;3.664;2022-11-18T01:20:52;4.40;;;1.80;;
56043;SDS011;41912;51.022;3.664;2022-11-18T01:23:18;6.32;;;2.20;;
56043;SDS011;41912;51.022;3.664;2022-11-18T01:25:45;4.75;;;1.85;;
56043;SDS011;41912;51.022;3.664;2022-11-18T01:28:12;7.07;;;2.40;;
56043;SDS011;41912;51.022;3.664;2022-11-18T01:30:38;6.00;;;2.00;;
56043;SDS011;41912;51.022;3.664;2022-11-18T01:33:05;11.77;;;2.97;;
56043;SDS011;41912;51.022;3.664;2022-11-18T01:35:39;7.18;;;2.30;;
56043;SDS011;41912;51.022;3.664;2022-11-18T01:38:07;5.90;;;2.05;;
56043;SDS011;41912;51.022;3.664;2022-11-18T01:40:35;6.63;;;2.17;;
56043;SDS011;41912;51.022;3.664;2022-11-18T01:43:01;8.70;;;2.45;;
56043;SDS011;41912;51.022;3.664;2022-11-18T01:45:36;8.35;;;2.00;;
56043;SDS011;41912;51.022;3.664;2022-11-18T01:48:05;7.18;;;1.95;;
56043;SDS011;41912;51.022;3.664;2022-11-18T01:50:50;7.65;;;2.17;;
56043;SDS011;41912;51.022;3.664;2022-11-18T01:53:28;12.48;;;2.63;;
56043;SDS011;41912;51.022;3.664;2022-11-18T01:55:59;8.20;;;2.30;;
56043;SDS011;41912;51.022;3.664;2022-11-18T02:01:04;5.22;;;2.22;;
56043;SDS011;41912;51.022;3.664;2022-11-18T02:03:31;6.53;;;1.90;;
56043;SDS011;41912;51.022;3.664;2022-11-18T02:05:57;4.32;;;2.10;;
56043;SDS011;41912;51.022;3.664;2022-11-18T02:08:25;7.72;;;2.03;;
56043;SDS011;41912;51.022;3.664;2022-11-18T02:10:53;4.30;;;1.95;;
56043;SDS011;41912;51.022;3.664;2022-11-18T02:13:18;6.03;;;1.83;;
56043;SDS011;41912;51.022;3.664;2022-11-18T02:15:51;5.47;;;2.13;;
56043;SDS011;41912;51.022;3.664;2022-11-18T02:23:56;10.65;;;1.95;;
56043;SDS011;41912;51.022;3.664;2022-11-18T02:29:25;4.35;;;1.83;;
56043;SDS011;41912;51.022;3.664;2022-11-18T02:32:23;10.32;;;2.10;;
56043;SDS011;41912;51.022;3.664;2022-11-18T02:37:35;9.57;;;3.78;;
56043;SDS011;41912;51.022;3.664;2022-11-18T02:40:11;7.88;;;1.95;;
56043;SDS011;41912;51.022;3.664;2022-11-18T02:42:40;4.78;;;2.05;;
56043;SDS011;41912;51.022;3.664;2022-11-18T02:45:11;5.45;;;2.10;;
56043;SDS011;41912;51.022;3.664;2022-11-18T02:47:41;2.70;;;1.50;;
56043;SDS011;41912;51.022;3.664;2022-11-18T02:50:10;5.93;;;2.45;;
56043;SDS011;41912;51.022;3.664;2022-11-18T02:52:40;7.13;;;1.92;;
56043;SDS011;41912;51.022;3.664;2022-11-18T02:55:09;4.88;;;1.67;;
56043;SDS011;41912;51.022;3.664;2022-11-18T02:57:37;4.82;;;1.90;;
56043;SDS011;41912;51.022;3.664;2022-11-18T03:00:05;3.97;;;1.42;;
56043;SDS011;41912;51.022;3.664;2022-11-18T03:02:39;5.30;;;1.63;;
56043;SDS011;41912;51.022;3.664;2022-11-18T03:05:07;9.35;;;2.15;;
56043;SDS011;41912;51.022;3.664;2022-11-18T03:07:37;4.80;;;1.60;;
56043;SDS011;41912;51.022;3.664;2022-11-18T03:10:06;5.63;;;1.92;;
56043;SDS011;41912;51.022;3.664;2022-11-18T03:12:41;7.35;;;2.35;;
56043;SDS011;41912;51.022;3.664;2022-11-18T03:17:57;7.65;;;1.83;;
56043;SDS011;41912;51.022;3.664;2022-11-18T03:20:26;3.95;;;1.70;;
56043;SDS011;41912;51.022;3.664;2022-11-18T03:25:40;4.15;;;1.70;;
56043;SDS011;41912;51.022;3.664;2022-11-18T03:30:51;6.68;;;2.00;;
56043;SDS011;41912;51.022;3.664;2022-11-18T03:33:27;2.80;;;1.60;;
56043;SDS011;41912;51.022;3.664;2022-11-18T03:35:57;6.25;;;1.60;;
56043;SDS011;41912;51.022;3.664;2022-11-18T03:38:29;9.38;;;3.58;;
56043;SDS011;41912;51.022;3.664;2022-11-18T03:40:58;4.25;;;1.60;;
56043;SDS011;41912;51.022;3.664;2022-11-18T03:43:33;8.45;;;2.10;;
56043;SDS011;41912;51.022;3.664;2022-11-18T03:46:07;5.82;;;1.83;;
56043;SDS011;41912;51.022;3.664;2022-11-18T03:48:36;8.68;;;1.75;;
56043;SDS011;41912;51.022;3.664;2022-11-18T03:51:19;4.53;;;1.50;;
56043;SDS011;41912;51.022;3.664;2022-11-18T03:53:56;7.72;;;1.77;;
56043;SDS011;41912;51.022;3.664;2022-11-18T03:56:31;6.47;;;2.65;;
56043;SDS011;41912;51.022;3.664;2022-11-18T03:59:37;10.77;;;1.77;;
56043;SDS011;41912;51.022;3.664;2022-11-18T04:04:37;8.98;;;1.73;;
56043;SDS011;41912;51.022;3.664;2022-11-18T04:10:02;7.20;;;1.52;;
56043;SDS011;41912;51.022;3.664;2022-11-18T04:12:39;5.25;;;2.00;;
56043;SDS011;41912;51.022;3.664;2022-11-18T04:15:09;9.63;;;1.95;;
56043;SDS011;41912;51.022;3.664;2022-11-18T04:17:39;4.93;;;1.55;;
56043;SDS011;41912;51.022;3.664;2022-11-18T04:20:08;7.15;;;2.03;;
56043;SDS011;41912;51.022;3.664;2022-11-18T04:22:41;6.38;;;1.65;;
56043;SDS011;41912;51.022;3.664;2022-11-18T04:25:07;4.35;;;1.67;;
56043;SDS011;41912;51.022;3.664;2022-11-18T04:27:33;6.38;;;1.50;;
56043;SDS011;41912;51.022;3.664;2022-11-18T04:29:58;5.72;;;1.58;;
56043;SDS011;41912;51.022;3.664;2022-11-18T04:32:24;3.72;;;1.40;;
56043;SDS011;41912;51.022;3.664;2022-11-18T04:34:50;7.88;;;1.70;;
56043;SDS011;41912;51.022;3.664;2022-11-18T04:37:15;4.97;;;1.40;;
56043;SDS011;41912;51.022;3.664;2022-11-18T04:39:41;4.65;;;1.40;;
56043;SDS011;41912;51.022;3.664;2022-11-18T04:42:06;10.07;;;1.88;;
56043;SDS011;41912;51.022;3.664;2022-11-18T04:44:32;4.13;;;1.33;;
56043;SDS011;41912;51.022;3.664;2022-11-18T04:46:59;7.82;;;1.90;;
56043;SDS011;41912;51.022;3.664;2022-11-18T04:49:26;6.63;;;1.48;;
56043;SDS011;41912;51.022;3.664;2022-11-18T04:51:53;7.95;;;1.58;;
56043;SDS011;41912;51.022;3.664;2022-11-18T04:54:19;6.47;;;1.80;;
56043;SDS011;41912;51.022;3.664;2022-11-18T04:56:46;11.07;;;1.73;;
56043;SDS011;41912;51.022;3.664;2022-11-18T04:59:12;5.15;;;1.70;;
56043;SDS011;41912;51.022;3.664;2022-11-18T05:01:39;10.70;;;2.00;;
56043;SDS011;41912;51.022;3.664;2022-11-18T05:04:05;5.00;;;1.65;;
56043;SDS011;41912;51.022;3.664;2022-11-18T05:06:31;4.95;;;1.63;;
56043;SDS011;41912;51.022;3.664;2022-11-18T05:08:58;5.18;;;1.33;;
56043;SDS011;41912;51.022;3.664;2022-11-18T05:11:25;6.45;;;1.90;;
56043;SDS011;41912;51.022;3.664;2022-11-18T05:14:10;5.47;;;1.55;;
56043;SDS011;41912;51.022;3.664;2022-11-18T05:16:36;5.50;;;1.60;;
56043;SDS011;41912;51.022;3.664;2022-11-18T05:19:03;5.75;;;1.80;;
56043;SDS011;41912;51.022;3.664;2022-11-18T05:21:29;7.82;;;1.80;;
56043;SDS011;41912;51.022;3.664;2022-11-18T05:23:55;7.20;;;1.70;;
56043;SDS011;41912;51.022;3.664;2022-11-18T05:26:22;7.32;;;1.73;;
56043;SDS011;41912;51.022;3.664;2022-11-18T05:28:48;6.60;;;1.83;;
56043;SDS011;41912;51.022;3.664;2022-11-18T05:31:14;6.95;;;2.10;;
56043;SDS011;41912;51.022;3.664;2022-11-18T05:33:41;5.15;;;2.05;;
56043;SDS011;41912;51.022;3.664;2022-11-18T05:36:08;8.50;;;2.38;;
56043;SDS011;41912;51.022;3.664;2022-11-18T05:38:44;9.27;;;2.50;;
56043;SDS011;41912;51.022;3.664;2022-11-18T05:41:10;10.93;;;2.58;;
56043;SDS011;41912;51.022;3.664;2022-11-18T05:43:58;10.85;;;2.30;;
56043;SDS011;41912;51.022;3.664;2022-11-18T05:46:27;8.35;;;2.47;;
56043;SDS011;41912;51.022;3.664;2022-11-18T05:48:53;12.93;;;2.85;;
56043;SDS011;41912;51.022;3.664;2022-11-18T05:51:22;8.57;;;2.63;;
56043;SDS011;41912;51.022;3.664;2022-11-18T05:53:48;10.68;;;2.70;;
56043;SDS011;41912;51.022;3.664;2022-11-18T05:56:19;8.65;;;2.65;;
56043;SDS011;41912;51.022;3.664;2022-11-18T05:58:49;12.15;;;3.55;;
56043;SDS011;41912;51.022;3.664;2022-11-18T06:01:17;13.10;;;3.15;;
56043;SDS011;41912;51.022;3.664;2022-11-18T06:03:46;21.17;;;3.55;;
56043;SDS011;41912;51.022;3.664;2022-11-18T06:06:12;6.95;;;2.80;;
56043;SDS011;41912;51.022;3.664;2022-11-18T06:08:52;9.63;;;3.33;;
56043;SDS011;41912;51.022;3.664;2022-11-18T06:11:29;11.57;;;3.25;;
56043;SDS011;41912;51.022;3.664;2022-11-18T06:14:00;8.23;;;2.17;;
56043;SDS011;41912;51.022;3.664;2022-11-18T06:16:30;10.38;;;2.47;;
56043;SDS011;41912;51.022;3.664;2022-11-18T06:18:58;14.60;;;2.22;;
56043;SDS011;41912;51.022;3.664;2022-11-18T06:21:26;10.30;;;3.63;;
56043;SDS011;41912;51.022;3.664;2022-11-18T06:23:52;8.80;;;2.67;;
56043;SDS011;41912;51.022;3.664;2022-11-18T06:26:18;10.30;;;2.17;;
56043;SDS011;41912;51.022;3.664;2022-11-18T06:28:44;12.30;;;2.70;;
56043;SDS011;41912;51.022;3.664;2022-11-18T06:31:12;12.52;;;2.20;;
56043;SDS011;41912;51.022;3.664;2022-11-18T06:33:37;17.00;;;4.38;;
56043;SDS011;41912;51.022;3.664;2022-11-18T06:36:03;5.72;;;2.10;;
56043;SDS011;41912;51.022;3.664;2022-11-18T06:38:29;6.63;;;1.88;;
56043;SDS011;41912;51.022;3.664;2022-11-18T06:40:58;8.02;;;2.17;;
56043;SDS011;41912;51.022;3.664;2022-11-18T06:43:25;7.57;;;2.10;;
56043;SDS011;41912;51.022;3.664;2022-11-18T06:46:05;12.18;;;2.08;;
56043;SDS011;41912;51.022;3.664;2022-11-18T06:48:51;6.30;;;2.13;;
56043;SDS011;41912;51.022;3.664;2022-11-18T06:51:17;10.63;;;2.40;;
56043;SDS011;41912;51.022;3.664;2022-11-18T06:53:43;9.65;;;2.30;;
56043;SDS011;41912;51.022;3.664;2022-11-18T06:56:10;8.50;;;1.88;;
56043;SDS011;41912;51.022;3.664;2022-11-18T06:58:37;6.65;;;2.15;;
56043;SDS011;41912;51.022;3.664;2022-11-18T07:03:35;4.47;;;1.83;;
56043;SDS011;41912;51.022;3.664;2022-11-18T07:06:01;6.65;;;1.70;;
56043;SDS011;41912;51.022;3.664;2022-11-18T07:08:26;5.35;;;2.38;;
56043;SDS011;41912;51.022;3.664;2022-11-18T07:10:52;6.30;;;1.73;;
56043;SDS011;41912;51.022;3.664;2022-11-18T07:13:18;7.25;;;1.67;;
56043;SDS011;41912;51.022;3.664;2022-11-18T07:15:43;9.25;;;2.13;;
56043;SDS011;41912;51.022;3.664;2022-11-18T07:18:09;6.32;;;1.45;;
56043;SDS011;41912;51.022;3.664;2022-11-18T07:20:34;9.93;;;2.10;;
56043;SDS011;41912;51.022;3.664;2022-11-18T07:23:00;7.07;;;1.80;;
56043;SDS011;41912;51.022;3.664;2022-11-18T07:25:26;10.73;;;1.88;;
56043;SDS011;41912;51.022;3.664;2022-11-18T07:27:51;7.72;;;1.67;;
56043;SDS011;41912;51.022;3.664;2022-11-18T07:30:17;10.77;;;2.17;;
56043;SDS011;41912;51.022;3.664;2022-11-18T07:32:42;8.75;;;1.73;;
56043;SDS011;41912;51.022;3.664;2022-11-18T07:35:08;15.10;;;2.03;;
56043;SDS011;41912;51.022;3.664;2022-11-18T07:37:34;6.85;;;1.90;;
56043;SDS011;41912;51.022;3.664;2022-11-18T07:39:59;8.80;;;2.63;;
56043;SDS011;41912;51.022;3.664;2022-11-18T07:42:25;12.52;;;2.08;;
56043;SDS011;41912;51.022;3.664;2022-11-18T07:44:51;11.45;;;2.13;;
56043;SDS011;41912;51.022;3.664;2022-11-18T07:47:17;13.65;;;2.20;;
56043;SDS011;41912;51.022;3.664;2022-11-18T07:49:42;7.63;;;1.73;;
56043;SDS011;41912;51.022;3.664;2022-11-18T07:52:08;6.15;;;1.90;;
56043;SDS011;41912;51.022;3.664;2022-11-18T07:54:33;16.10;;;2.42;;
56043;SDS011;41912;51.022;3.664;2022-11-18T07:56:59;5.00;;;1.80;;
56043;SDS011;41912;51.022;3.664;2022-11-18T07:59:25;8.30;;;1.98;;
56043;SDS011;41912;51.022;3.664;2022-11-18T08:01:50;10.40;;;2.40;;
56043;SDS011;41912;51.022;3.664;2022-11-18T08:04:16;10.73;;;3.50;;
56043;SDS011;41912;51.022;3.664;2022-11-18T08:06:42;11.60;;;2.17;;
56043;SDS011;41912;51.022;3.664;2022-11-18T08:09:07;14.02;;;2.45;;
56043;SDS011;41912;51.022;3.664;2022-11-18T08:11:33;4.78;;;1.90;;
56043;SDS011;41912;51.022;3.664;2022-11-18T08:13:59;7.30;;;1.60;;
56043;SDS011;41912;51.022;3.664;2022-11-18T08:16:25;9.32;;;3.13;;
56043;SDS011;41912;51.022;3.664;2022-11-18T08:18:51;9.10;;;2.17;;
56043;SDS011;41912;51.022;3.664;2022-11-18T08:21:18;8.20;;;1.90;;
56043;SDS011;41912;51.022;3.664;2022-11-18T08:23:52;7.78;;;1.85;;
56043;SDS011;41912;51.022;3.664;2022-11-18T08:26:21;17.70;;;2.92;;
56043;SDS011;41912;51.022;3.664;2022-11-18T08:28:48;8.02;;;1.75;;
56043;SDS011;41912;51.022;3.664;2022-11-18T08:31:15;9.65;;;2.20;;
56043;SDS011;41912;51.022;3.664;2022-11-18T08:33:43;5.45;;;1.98;;
56043;SDS011;41912;51.022;3.664;2022-11-18T08:36:11;11.38;;;2.30;;
56043;SDS011;41912;51.022;3.664;2022-11-18T08:38:40;12.60;;;2.67;;
56043;SDS011;41912;51.022;3.664;2022-11-18T08:41:10;10.88;;;2.45;;
56043;SDS011;41912;51.022;3.664;2022-11-18T08:43:37;8.65;;;2.15;;
56043;SDS011;41912;51.022;3.664;2022-11-18T08:46:03;8.90;;;2.22;;
56043;SDS011;41912;51.022;3.664;2022-11-18T08:48:29;8.75;;;2.95;;
56043;SDS011;41912;51.022;3.664;2022-11-18T08:50:55;9.57;;;2.50;;
56043;SDS011;41912;51.022;3.664;2022-11-18T08:53:22;9.07;;;2.35;;
56043;SDS011;41912;51.022;3.664;2022-11-18T08:55:53;15.20;;;3.15;;
56043;SDS011;41912;51.022;3.664;2022-11-18T08:58:23;18.80;;;2.47;;
56043;SDS011;41912;51.022;3.664;2022-11-18T09:00:49;8.82;;;2.70;;
56043;SDS011;41912;51.022;3.664;2022-11-18T09:03:15;8.95;;;2.20;;
56043;SDS011;41912;51.022;3.664;2022-11-18T09:05:40;10.88;;;2.80;;
56043;SDS011;41912;51.022;3.664;2022-11-18T09:08:06;11.30;;;2.38;;
56043;SDS011;41912;51.022;3.664;2022-11-18T09:10:32;11.07;;;2.38;;
56043;SDS011;41912;51.022;3.664;2022-11-18T09:12:58;6.10;;;2.10;;
56043;SDS011;41912;51.022;3.664;2022-11-18T09:15:24;11.27;;;3.00;;
56043;SDS011;41912;51.022;3.664;2022-11-18T09:17:51;8.50;;;3.03;;
56043;SDS011;41912;51.022;3.664;2022-11-18T09:20:17;27.55;;;3.25;;
56043;SDS011;41912;51.022;3.664;2022-11-18T09:22:42;12.68;;;2.60;;
56043;SDS011;41912;51.022;3.664;2022-11-18T09:25:08;15.55;;;3.13;;
56043;SDS011;41912;51.022;3.664;2022-11-18T09:27:34;7.57;;;2.67;;
56043;SDS011;41912;51.022;3.664;2022-11-18T09:29:59;12.00;;;2.42;;
56043;SDS011;41912;51.022;3.664;2022-11-18T09:32:25;10.57;;;2.47;;
56043;SDS011;41912;51.022;3.664;2022-11-18T09:34:51;8.20;;;3.20;;
56043;SDS011;41912;51.022;3.664;2022-11-18T09:37:16;10.27;;;3.00;;
56043;SDS011;41912;51.022;3.664;2022-11-18T09:39:42;10.85;;;2.45;;
56043;SDS011;41912;51.022;3.664;2022-11-18T09:42:12;11.55;;;2.60;;
56043;SDS011;41912;51.022;3.664;2022-11-18T09:47:29;10.85;;;2.47;;
56043;SDS011;41912;51.022;3.664;2022-11-18T09:50:16;9.60;;;2.85;;
56043;SDS011;41912;51.022;3.664;2022-11-18T09:53:08;10.68;;;2.97;;
56043;SDS011;41912;51.022;3.664;2022-11-18T09:55:43;8.90;;;2.40;;
56043;SDS011;41912;51.022;3.664;2022-11-18T09:58:52;11.77;;;2.45;;
56043;SDS011;41912;51.022;3.664;2022-11-18T10:00:59;12.38;;;3.47;;
56043;SDS011;41912;51.022;3.664;2022-11-18T10:03:27;14.65;;;2.63;;
56043;SDS011;41912;51.022;3.664;2022-11-18T10:06:02;9.02;;;2.50;;
56043;SDS011;41912;51.022;3.664;2022-11-18T10:08:32;14.82;;;2.63;;
56043;SDS011;41912;51.022;3.664;2022-11-18T10:11:18;15.30;;;2.35;;
56043;SDS011;41912;51.022;3.664;2022-11-18T10:16:25;12.60;;;2.75;;
56043;SDS011;41912;51.022;3.664;2022-11-18T10:24:24;12.55;;;2.60;;
56043;SDS011;41912;51.022;3.664;2022-11-18T10:26:57;9.95;;;3.25;;
56043;SDS011;41912;51.022;3.664;2022-11-18T10:29:24;6.60;;;2.13;;
56043;SDS011;41912;51.022;3.664;2022-11-18T10:34:22;9.67;;;2.20;;
56043;SDS011;41912;51.022;3.664;2022-11-18T10:36:58;9.90;;;2.30;;
56043;SDS011;41912;51.022;3.664;2022-11-18T10:39:31;11.45;;;2.33;;
56043;SDS011;41912;51.022;3.664;2022-11-18T10:42:02;17.30;;;2.67;;
56043;SDS011;41912;51.022;3.664;2022-11-18T10:49:52;11.02;;;2.83;;
56043;SDS011;41912;51.022;3.664;2022-11-18T10:52:19;13.00;;;2.47;;
56043;SDS011;41912;51.022;3.664;2022-11-18T10:54:46;14.65;;;3.13;;
56043;SDS011;41912;51.022;3.664;2022-11-18T10:57:41;10.02;;;2.22;;
56043;SDS011;41912;51.022;3.664;2022-11-18T11:00:50;8.90;;;2.47;;
56043;SDS011;41912;51.022;3.664;2022-11-18T11:02:56;10.35;;;2.55;;
56043;SDS011;41912;51.022;3.664;2022-11-18T11:05:22;8.80;;;2.45;;
56043;SDS011;41912;51.022;3.664;2022-11-18T11:08:03;8.13;;;2.80;;
56043;SDS011;41912;51.022;3.664;2022-11-18T11:10:30;9.32;;;2.65;;
56043;SDS011;41912;51.022;3.664;2022-11-18T11:13:00;9.15;;;2.53;;
56043;SDS011;41912;51.022;3.664;2022-11-18T11:15:35;7.50;;;2.85;;
56043;SDS011;41912;51.022;3.664;2022-11-18T11:18:08;12.32;;;2.63;;
56043;SDS011;41912;51.022;3.664;2022-11-18T11:20:57;7.70;;;2.90;;
56043;SDS011;41912;51.022;3.664;2022-11-18T11:23:23;9.68;;;2.72;;
56043;SDS011;41912;51.022;3.664;2022-11-18T11:26:11;8.75;;;2.08;;
56043;SDS011;41912;51.022;3.664;2022-11-18T11:28:44;13.43;;;3.63;;
56043;SDS011;41912;51.022;3.664;2022-11-18T11:31:29;8.05;;;2.50;;
56043;SDS011;41912;51.022;3.664;2022-11-18T11:37:15;11.68;;;2.88;;
56043;SDS011;41912;51.022;3.664;2022-11-18T11:51:21;7.10;;;2.50;;
56043;SDS011;41912;51.022;3.664;2022-11-18T11:56:41;15.35;;;2.63;;
56043;SDS011;41912;51.022;3.664;2022-11-18T12:04:52;5.95;;;2.10;;
56043;SDS011;41912;51.022;3.664;2022-11-18T12:07:32;5.88;;;1.80;;
56043;SDS011;41912;51.022;3.664;2022-11-18T12:10:26;8.55;;;2.22;;
56043;SDS011;41912;51.022;3.664;2022-11-18T12:16:04;8.48;;;2.10;;
56043;SDS011;41912;51.022;3.664;2022-11-18T12:18:37;13.27;;;2.20;;
56043;SDS011;41912;51.022;3.664;2022-11-18T12:27:01;5.00;;;2.38;;
56043;SDS011;41912;51.022;3.664;2022-11-18T12:32:37;5.80;;;2.08;;
56043;SDS011;41912;51.022;3.664;2022-11-18T12:42:57;6.20;;;2.13;;
56043;SDS011;41912;51.022;3.664;2022-11-18T12:50:49;11.75;;;2.17;;
56043;SDS011;41912;51.022;3.664;2022-11-18T12:53:30;11.50;;;2.53;;
56043;SDS011;41912;51.022;3.664;2022-11-18T12:58:48;10.57;;;3.03;;
56043;SDS011;41912;51.022;3.664;2022-11-18T13:01:17;10.75;;;2.53;;
56043;SDS011;41912;51.022;3.664;2022-11-18T13:03:44;10.80;;;3.00;;
56043;SDS011;41912;51.022;3.664;2022-11-18T13:06:23;13.10;;;2.70;;
56043;SDS011;41912;51.022;3.664;2022-11-18T13:08:58;8.23;;;2.58;;
56043;SDS011;41912;51.022;3.664;2022-11-18T13:11:27;7.82;;;2.78;;
56043;SDS011;41912;51.022;3.664;2022-11-18T13:14:26;15.23;;;2.88;;
56043;SDS011;41912;51.022;3.664;2022-11-18T13:17:34;10.70;;;2.85;;
56043;SDS011;41912;51.022;3.664;2022-11-18T13:22:54;13.02;;;2.60;;
56043;SDS011;41912;51.022;3.664;2022-11-18T13:25:40;8.98;;;2.25;;
56043;SDS011;41912;51.022;3.664;2022-11-18T13:30:54;7.78;;;2.72;;
56043;SDS011;41912;51.022;3.664;2022-11-18T13:33:32;5.95;;;2.13;;
56043;SDS011;41912;51.022;3.664;2022-11-18T13:36:00;13.80;;;2.72;;
56043;SDS011;41912;51.022;3.664;2022-11-18T13:38:26;12.10;;;2.72;;
56043;SDS011;41912;51.022;3.664;2022-11-18T13:40:52;8.93;;;2.83;;
56043;SDS011;41912;51.022;3.664;2022-11-18T13:43:31;10.02;;;2.55;;
56043;SDS011;41912;51.022;3.664;2022-11-18T13:46:00;12.98;;;2.42;;
56043;SDS011;41912;51.022;3.664;2022-11-18T13:48:29;7.03;;;2.80;;
56043;SDS011;41912;51.022;3.664;2022-11-18T13:50:57;11.77;;;3.17;;
56043;SDS011;41912;51.022;3.664;2022-11-18T13:53:43;9.50;;;2.30;;
56043;SDS011;41912;51.022;3.664;2022-11-18T13:56:20;9.45;;;3.13;;
56043;SDS011;41912;51.022;3.664;2022-11-18T14:03:48;11.25;;;2.55;;
56043;SDS011;41912;51.022;3.664;2022-11-18T14:06:24;8.43;;;2.40;;
56043;SDS011;41912;51.022;3.664;2022-11-18T14:08:50;12.15;;;2.60;;
56043;SDS011;41912;51.022;3.664;2022-11-18T14:11:35;9.90;;;2.20;;
56043;SDS011;41912;51.022;3.664;2022-11-18T14:14:02;13.18;;;2.83;;
56043;SDS011;41912;51.022;3.664;2022-11-18T14:16:33;11.82;;;2.45;;
56043;SDS011;41912;51.022;3.664;2022-11-18T14:19:00;7.28;;;1.85;;
56043;SDS011;41912;51.022;3.664;2022-11-18T14:21:29;8.50;;;1.83;;
56043;SDS011;41912;51.022;3.664;2022-11-18T14:23:57;13.13;;;2.30;;
56043;SDS011;41912;51.022;3.664;2022-11-18T14:26:33;7.25;;;2.20;;
56043;SDS011;41912;51.022;3.664;2022-11-18T14:29:13;4.97;;;1.83;;
56043;SDS011;41912;51.022;3.664;2022-11-18T14:32:00;7.72;;;1.80;;
56043;SDS011;41912;51.022;3.664;2022-11-18T14:34:28;12.10;;;2.40;;
56043;SDS011;41912;51.022;3.664;2022-11-18T14:36:54;4.97;;;2.20;;
56043;SDS011;41912;51.022;3.664;2022-11-18T14:41:48;8.77;;;1.95;;
56043;SDS011;41912;51.022;3.664;2022-11-18T14:44:14;9.60;;;2.22;;
56043;SDS011;41912;51.022;3.664;2022-11-18T14:46:42;9.02;;;2.33;;
56043;SDS011;41912;51.022;3.664;2022-11-18T14:49:14;17.38;;;2.47;;
56043;SDS011;41912;51.022;3.664;2022-11-18T14:51:42;5.55;;;1.92;;
56043;SDS011;41912;51.022;3.664;2022-11-18T14:54:14;5.40;;;1.92;;
56043;SDS011;41912;51.022;3.664;2022-11-18T14:56:42;6.03;;;2.10;;
56043;SDS011;41912;51.022;3.664;2022-11-18T14:59:12;6.82;;;2.13;;
56043;SDS011;41912;51.022;3.664;2022-11-18T15:01:39;3.42;;;1.52;;
56043;SDS011;41912;51.022;3.664;2022-11-18T15:04:05;5.55;;;2.08;;
56043;SDS011;41912;51.022;3.664;2022-11-18T15:06:31;8.73;;;2.17;;
56043;SDS011;41912;51.022;3.664;2022-11-18T15:08:57;9.80;;;2.30;;
56043;SDS011;41912;51.022;3.664;2022-11-18T15:11:22;7.70;;;2.05;;
56043;SDS011;41912;51.022;3.664;2022-11-18T15:13:48;17.02;;;3.40;;
56043;SDS011;41912;51.022;3.664;2022-11-18T15:16:21;23.55;;;4.18;;
56043;SDS011;41912;51.022;3.664;2022-11-18T15:18:50;13.43;;;3.30;;
56043;SDS011;41912;51.022;3.664;2022-11-18T15:21:17;5.57;;;2.22;;
56043;SDS011;41912;51.022;3.664;2022-11-18T15:23:44;10.98;;;3.45;;
56043;SDS011;41912;51.022;3.664;2022-11-18T15:26:26;7.82;;;2.10;;
56043;SDS011;41912;51.022;3.664;2022-11-18T15:28:59;11.15;;;2.50;;
56043;SDS011;41912;51.022;3.664;2022-11-18T15:31:25;7.45;;;2.00;;
56043;SDS011;41912;51.022;3.664;2022-11-18T15:33:51;10.73;;;2.28;;
56043;SDS011;41912;51.022;3.664;2022-11-18T15:38:42;5.38;;;1.88;;
56043;SDS011;41912;51.022;3.664;2022-11-18T15:41:21;10.90;;;2.08;;
56043;SDS011;41912;51.022;3.664;2022-11-18T15:43:50;12.40;;;2.63;;
56043;SDS011;41912;51.022;3.664;2022-11-18T15:46:17;12.13;;;2.20;;
56043;SDS011;41912;51.022;3.664;2022-11-18T15:48:44;9.82;;;3.08;;
56043;SDS011;41912;51.022;3.664;2022-11-18T15:51:10;7.53;;;3.03;;
56043;SDS011;41912;51.022;3.664;2022-11-18T15:53:36;10.27;;;3.58;;
56043;SDS011;41912;51.022;3.664;2022-11-18T15:58:43;8.65;;;3.05;;
56043;SDS011;41912;51.022;3.664;2022-11-18T16:01:19;10.23;;;3.38;;
56043;SDS011;41912;51.022;3.664;2022-11-18T16:03:44;7.53;;;2.78;;
56043;SDS011;41912;51.022;3.664;2022-11-18T16:06:10;10.18;;;2.78;;
56043;SDS011;41912;51.022;3.664;2022-11-18T16:08:36;11.63;;;3.28;;
56043;SDS011;41912;51.022;3.664;2022-11-18T16:11:01;7.28;;;2.88;;
56043;SDS011;41912;51.022;3.664;2022-11-18T16:13:45;7.82;;;2.78;;
56043;SDS011;41912;51.022;3.664;2022-11-18T16:16:21;14.65;;;3.22;;
56043;SDS011;41912;51.022;3.664;2022-11-18T16:18:52;9.02;;;2.90;;
56043;SDS011;41912;51.022;3.664;2022-11-18T16:21:19;9.48;;;3.38;;
56043;SDS011;41912;51.022;3.664;2022-11-18T16:23:45;9.93;;;3.50;;
56043;SDS011;41912;51.022;3.664;2022-11-18T16:26:10;6.45;;;3.10;;
56043;SDS011;41912;51.022;3.664;2022-11-18T16:28:36;9.50;;;4.28;;
56043;SDS011;41912;51.022;3.664;2022-11-18T16:31:03;11.60;;;4.95;;
56043;SDS011;41912;51.022;3.664;2022-11-18T16:33:48;11.60;;;4.55;;
56043;SDS011;41912;51.022;3.664;2022-11-18T16:36:14;13.57;;;4.25;;
56043;SDS011;41912;51.022;3.664;2022-11-18T16:38:39;13.75;;;4.65;;
56043;SDS011;41912;51.022;3.664;2022-11-18T16:41:05;12.05;;;4.80;;
56043;SDS011;41912;51.022;3.664;2022-11-18T16:43:51;10.38;;;4.47;;
56043;SDS011;41912;51.022;3.664;2022-11-18T16:46:16;11.27;;;4.07;;
56043;SDS011;41912;51.022;3.664;2022-11-18T16:48:42;8.55;;;3.92;;
56043;SDS011;41912;51.022;3.664;2022-11-18T16:51:18;12.88;;;4.53;;
56043;SDS011;41912;51.022;3.664;2022-11-18T16:53:49;11.48;;;4.40;;
56043;SDS011;41912;51.022;3.664;2022-11-18T16:56:16;10.63;;;3.67;;
56043;SDS011;41912;51.022;3.664;2022-11-18T16:58:41;11.50;;;3.53;;
56043;SDS011;41912;51.022;3.664;2022-11-18T17:01:10;22.15;;;3.90;;